createdAt,value
2017-07-19T00:00:32.440Z,23.50
2017-07-19T00:03:01.007Z,23.60
2017-07-19T00:05:29.430Z,23.70
2017-07-19T00:07:57.832Z,23.70
2017-07-19T00:10:26.836Z,23.80
2017-07-19T00:12:55.227Z,23.70
2017-07-19T00:15:23.614Z,23.70
2017-07-19T00:17:52.111Z,23.70
2017-07-19T00:20:20.513Z,23.70
2017-07-19T00:22:48.920Z,23.60
2017-07-19T00:25:17.698Z,23.60
2017-07-19T00:27:46.882Z,23.60
2017-07-19T00:30:15.311Z,23.60
2017-07-19T00:32:43.737Z,23.70
2017-07-19T00:35:12.134Z,23.70
2017-07-19T00:37:41.293Z,23.50
2017-07-19T00:40:10.238Z,23.50
2017-07-19T00:42:38.642Z,23.40
2017-07-19T00:45:07.062Z,23.40
2017-07-19T00:47:36.470Z,23.30
2017-07-19T00:50:05.613Z,23.30
2017-07-19T00:52:34.009Z,23.30
2017-07-19T00:55:02.719Z,23.20
2017-07-19T00:57:31.125Z,23.20
2017-07-19T00:59:59.511Z,23.20
2017-07-19T01:02:28.007Z,23.20
2017-07-19T01:04:56.491Z,23.20
2017-07-19T01:07:24.934Z,23.10
2017-07-19T01:09:53.544Z,23.00
2017-07-19T01:12:21.962Z,23.00
2017-07-19T01:14:50.388Z,23.00
2017-07-19T01:17:18.990Z,23.00
2017-07-19T01:19:47.394Z,22.90
2017-07-19T01:22:15.795Z,22.90
2017-07-19T01:24:44.359Z,22.90
2017-07-19T01:27:12.749Z,22.90
2017-07-19T01:29:41.159Z,22.80
2017-07-19T01:32:09.727Z,22.80
2017-07-19T01:34:38.146Z,22.60
2017-07-19T01:37:06.561Z,22.70
2017-07-19T01:39:35.070Z,22.50
2017-07-19T01:42:03.465Z,22.30
2017-07-19T01:44:31.512Z,22.40
2017-07-19T01:47:00.007Z,22.40
2017-07-19T01:49:28.408Z,22.30
2017-07-19T01:51:56.829Z,22.10
2017-07-19T01:54:25.335Z,22.10
2017-07-19T01:56:53.051Z,22.00
2017-07-19T01:59:21.528Z,21.90
2017-07-19T02:01:49.997Z,22.00
2017-07-19T02:04:23.830Z,21.90
2017-07-19T02:06:52.714Z,21.70
2017-07-19T02:09:20.774Z,21.60
2017-07-19T02:11:48.827Z,21.40
2017-07-19T02:14:17.235Z,21.40
2017-07-19T02:16:45.624Z,21.30
2017-07-19T02:19:14.017Z,21.20
2017-07-19T02:21:42.522Z,21.10
2017-07-19T02:24:11.679Z,20.90
2017-07-19T02:26:40.082Z,20.90
2017-07-19T02:29:09.269Z,20.70
2017-07-19T02:31:38.429Z,20.70
2017-07-19T02:34:06.827Z,20.70
2017-07-19T02:36:35.283Z,20.70
2017-07-19T02:39:03.334Z,20.70
2017-07-19T02:41:31.707Z,20.70
2017-07-19T02:44:00.111Z,20.70
2017-07-19T02:46:28.500Z,20.50
2017-07-19T02:48:56.548Z,20.30
2017-07-19T02:51:24.967Z,20.30
2017-07-19T02:53:53.370Z,20.30
2017-07-19T02:56:22.528Z,20.30
2017-07-19T02:58:51.168Z,20.30
2017-07-19T03:01:19.570Z,20.30
2017-07-19T03:03:47.962Z,20.40
2017-07-19T03:06:16.809Z,20.30
2017-07-19T03:08:45.206Z,20.10
2017-07-19T03:11:13.610Z,20.10
2017-07-19T03:13:42.132Z,20.10
2017-07-19T03:16:11.288Z,20.00
2017-07-19T03:18:39.700Z,20.00
2017-07-19T03:21:08.904Z,20.00
2017-07-19T03:23:38.054Z,19.90
2017-07-19T03:26:06.449Z,19.80
2017-07-19T03:28:34.851Z,19.80
2017-07-19T03:31:04.016Z,19.70
2017-07-19T03:33:32.424Z,19.70
2017-07-19T03:36:01.710Z,19.70
2017-07-19T03:38:30.114Z,19.70
2017-07-19T03:40:58.511Z,19.60
2017-07-19T03:43:27.184Z,19.60
2017-07-19T03:45:55.582Z,19.70
2017-07-19T03:48:23.993Z,19.70
2017-07-19T03:50:52.650Z,19.70
2017-07-19T03:53:21.049Z,19.70
2017-07-19T03:55:49.443Z,19.60
2017-07-19T03:58:17.669Z,19.50
2017-07-19T04:00:46.076Z,19.40
2017-07-19T04:03:14.476Z,19.40
2017-07-19T04:05:43.133Z,19.40
2017-07-19T04:08:11.524Z,19.50
2017-07-19T04:10:39.919Z,19.60
2017-07-19T04:13:08.377Z,19.70
2017-07-19T04:15:36.783Z,19.80
2017-07-19T04:18:05.173Z,19.90
2017-07-19T04:20:34.365Z,20.40
2017-07-19T04:23:03.555Z,20.60
2017-07-19T04:25:31.942Z,20.60
2017-07-19T04:28:01.158Z,21.10
2017-07-19T04:30:29.561Z,21.10
2017-07-19T04:32:57.951Z,21.30
2017-07-19T04:35:26.356Z,21.60
2017-07-19T04:37:54.746Z,21.80
2017-07-19T04:40:23.137Z,21.90
2017-07-19T04:42:51.746Z,22.10
2017-07-19T04:45:20.797Z,22.30
2017-07-19T04:47:49.185Z,22.40
2017-07-19T04:50:18.609Z,22.70
2017-07-19T04:52:47.009Z,22.70
2017-07-19T04:55:15.421Z,22.80
2017-07-19T04:57:43.810Z,22.90
2017-07-19T05:00:12.197Z,23.10
2017-07-19T05:02:41.368Z,23.80
2017-07-19T05:05:09.976Z,23.70
2017-07-19T05:07:38.378Z,23.90
2017-07-19T05:10:06.790Z,24.10
2017-07-19T05:12:35.224Z,24.10
2017-07-19T05:15:04.385Z,24.20
2017-07-19T05:17:32.784Z,24.20
2017-07-19T05:20:01.320Z,24.30
2017-07-19T05:22:29.727Z,24.60
2017-07-19T05:24:58.115Z,24.80
2017-07-19T05:27:26.533Z,25.00
2017-07-19T05:29:54.983Z,25.10
2017-07-19T05:32:23.379Z,25.20
2017-07-19T05:34:52.660Z,25.40
2017-07-19T05:37:21.050Z,25.30
2017-07-19T05:39:50.226Z,25.40
2017-07-19T05:42:18.675Z,25.40
2017-07-19T05:44:47.054Z,25.70
2017-07-19T05:47:15.458Z,25.90
2017-07-19T05:49:44.284Z,26.10
2017-07-19T05:52:12.689Z,26.40
2017-07-19T05:54:41.094Z,26.40
2017-07-19T05:57:09.615Z,26.70
2017-07-19T05:59:38.778Z,26.90
2017-07-19T06:02:07.174Z,26.90
2017-07-19T06:04:36.370Z,27.20
2017-07-19T06:07:04.760Z,27.20
2017-07-19T06:09:33.929Z,27.50
2017-07-19T06:12:02.554Z,27.50
2017-07-19T06:14:30.952Z,27.40
2017-07-19T06:16:59.369Z,27.30
2017-07-19T06:19:28.202Z,27.10
2017-07-19T06:21:56.608Z,27.00
2017-07-19T06:24:25.003Z,27.00
2017-07-19T06:26:53.462Z,27.00
2017-07-19T06:29:21.865Z,27.10
2017-07-19T06:31:50.068Z,27.20
2017-07-19T06:34:19.491Z,27.50
2017-07-19T06:36:47.888Z,27.50
2017-07-19T06:39:16.284Z,27.60
2017-07-19T06:41:44.922Z,27.80
2017-07-19T06:44:13.342Z,28.00
2017-07-19T06:46:41.740Z,28.20
2017-07-19T06:49:10.175Z,28.30
2017-07-19T06:51:38.586Z,28.40
2017-07-19T06:54:07.006Z,28.60
2017-07-19T06:56:36.344Z,28.80
2017-07-19T06:59:04.729Z,28.70
2017-07-19T07:01:33.112Z,28.30
2017-07-19T07:04:01.985Z,28.00
2017-07-19T07:06:30.394Z,27.70
2017-07-19T07:08:59.463Z,27.50
2017-07-19T07:11:27.882Z,27.50
2017-07-19T07:13:56.274Z,27.40
2017-07-19T07:16:25.436Z,27.80
2017-07-19T07:18:53.843Z,27.80
2017-07-19T07:21:22.233Z,28.00
2017-07-19T07:23:51.382Z,28.50
2017-07-19T07:26:20.016Z,28.40
2017-07-19T07:28:48.429Z,28.80
2017-07-19T07:31:16.854Z,29.10
2017-07-19T07:33:45.470Z,29.50
2017-07-19T07:36:13.861Z,29.50
2017-07-19T07:38:42.278Z,29.60
2017-07-19T07:41:10.722Z,29.80
2017-07-19T07:43:39.117Z,30.10
2017-07-19T07:46:07.507Z,30.20
2017-07-19T07:48:35.967Z,30.30
2017-07-19T07:51:04.346Z,30.50
2017-07-19T07:53:32.753Z,30.70
2017-07-19T07:56:01.334Z,31.10
2017-07-19T07:58:29.733Z,31.40
2017-07-19T08:00:58.122Z,31.50
2017-07-19T08:03:27.536Z,30.80
2017-07-19T08:05:55.939Z,30.80
2017-07-19T08:08:24.333Z,31.00
2017-07-19T08:10:52.763Z,31.20
2017-07-19T08:13:21.921Z,31.20
2017-07-19T08:15:50.322Z,31.20
2017-07-19T08:18:19.796Z,31.40
2017-07-19T08:20:48.221Z,31.40
2017-07-19T08:23:17.384Z,31.70
2017-07-19T08:25:45.949Z,31.60
2017-07-19T08:28:14.354Z,31.80
2017-07-19T08:30:42.744Z,32.00
2017-07-19T08:33:11.945Z,32.10
2017-07-19T08:35:41.114Z,32.30
2017-07-19T08:38:09.502Z,32.20
2017-07-19T08:40:37.998Z,32.70
2017-07-19T08:43:07.168Z,33.00
2017-07-19T08:45:35.587Z,33.00
2017-07-19T08:48:04.524Z,33.90
2017-07-19T08:50:32.922Z,33.90
2017-07-19T08:53:01.309Z,34.20
2017-07-19T08:55:30.507Z,34.00
2017-07-19T08:57:58.909Z,33.90
2017-07-19T09:00:27.286Z,33.60
2017-07-19T09:02:55.879Z,33.20
2017-07-19T09:05:24.313Z,33.20
2017-07-19T09:07:52.708Z,33.30
2017-07-19T09:10:22.073Z,33.50
2017-07-19T09:12:50.449Z,33.50
2017-07-19T09:15:18.866Z,33.70
2017-07-19T09:17:48.413Z,33.50
2017-07-19T09:20:16.931Z,33.50
2017-07-19T09:22:45.409Z,33.40
2017-07-19T09:25:14.030Z,33.50
2017-07-19T09:27:42.419Z,33.50
2017-07-19T09:30:10.794Z,33.50
2017-07-19T09:32:39.214Z,33.90
2017-07-19T09:35:07.617Z,34.00
2017-07-19T09:37:36.006Z,34.30
2017-07-19T09:40:04.443Z,34.50
2017-07-19T09:42:32.817Z,34.20
2017-07-19T09:45:04.206Z,34.00
2017-07-19T09:47:32.717Z,33.90
2017-07-19T09:50:01.107Z,33.80
2017-07-19T09:52:29.492Z,33.80
2017-07-19T09:54:58.137Z,34.00
2017-07-19T09:57:27.307Z,34.10
2017-07-19T09:59:55.711Z,34.10
2017-07-19T10:02:24.971Z,34.20
2017-07-19T10:04:53.364Z,34.20
2017-07-19T10:07:21.763Z,34.30
2017-07-19T10:09:51.193Z,34.10
2017-07-19T10:12:19.588Z,34.10
2017-07-19T10:14:47.982Z,34.30
2017-07-19T10:17:16.486Z,34.40
2017-07-19T10:19:44.879Z,34.40
2017-07-19T10:22:13.269Z,34.30
2017-07-19T10:24:42.486Z,34.00
2017-07-19T10:27:10.882Z,34.00
2017-07-19T10:29:39.263Z,34.00
2017-07-19T10:32:07.861Z,34.00
2017-07-19T10:34:36.241Z,33.90
2017-07-19T10:37:04.670Z,33.90
2017-07-19T10:39:33.737Z,33.20
2017-07-19T10:42:02.138Z,32.80
2017-07-19T10:44:31.298Z,32.60
2017-07-19T10:46:59.998Z,32.60
2017-07-19T10:49:28.386Z,32.10
2017-07-19T10:51:57.539Z,32.40
2017-07-19T10:54:26.890Z,32.40
2017-07-19T10:56:55.284Z,32.90
2017-07-19T10:59:23.680Z,33.20
2017-07-19T11:01:52.868Z,32.60
2017-07-19T11:04:21.259Z,31.70
2017-07-19T11:06:49.667Z,31.00
2017-07-19T11:09:18.275Z,30.80
2017-07-19T11:11:47.430Z,31.50
2017-07-19T11:14:15.865Z,31.40
2017-07-19T11:16:45.362Z,31.50
2017-07-19T11:19:15.222Z,31.30
2017-07-19T11:21:43.622Z,31.30
2017-07-19T11:24:12.376Z,31.10
2017-07-19T11:26:40.760Z,30.90
2017-07-19T11:29:09.154Z,30.80
2017-07-19T11:31:37.560Z,30.50
2017-07-19T11:34:05.947Z,30.50
2017-07-19T11:36:35.101Z,30.50
2017-07-19T11:39:03.222Z,30.50
2017-07-19T11:41:32.370Z,30.50
2017-07-19T11:44:00.770Z,30.50
2017-07-19T11:46:29.395Z,30.80
2017-07-19T11:48:57.783Z,31.40
2017-07-19T11:51:26.172Z,31.60
2017-07-19T11:53:54.826Z,31.70
2017-07-19T11:56:24.000Z,31.60
2017-07-19T11:58:53.187Z,31.20
2017-07-19T12:01:21.620Z,31.20
2017-07-19T12:03:50.007Z,31.10
2017-07-19T12:06:18.398Z,31.10
2017-07-19T12:08:46.802Z,31.20
2017-07-19T12:11:15.205Z,31.30
2017-07-19T12:13:44.362Z,31.20
2017-07-19T12:16:12.874Z,31.20
2017-07-19T12:18:42.070Z,30.80
2017-07-19T12:21:11.246Z,31.00
2017-07-19T12:23:39.869Z,31.00
2017-07-19T12:26:08.359Z,30.90
2017-07-19T12:28:36.763Z,30.50
2017-07-19T12:31:05.334Z,30.40
2017-07-19T12:33:33.722Z,30.20
2017-07-19T12:36:02.120Z,30.00
2017-07-19T12:38:30.561Z,29.70
2017-07-19T12:40:58.949Z,29.30
2017-07-19T12:43:27.341Z,28.40
2017-07-19T12:45:55.841Z,27.50
2017-07-19T12:48:24.247Z,27.30
2017-07-19T12:50:53.421Z,27.00
2017-07-19T12:53:21.869Z,26.90
2017-07-19T12:55:50.244Z,26.80
2017-07-19T12:58:18.633Z,26.40
2017-07-19T13:00:47.266Z,26.40
2017-07-19T13:03:15.667Z,26.40
2017-07-19T13:05:44.057Z,26.20
2017-07-19T13:08:12.463Z,25.90
2017-07-19T13:10:40.877Z,25.90
2017-07-19T13:13:10.041Z,25.50
2017-07-19T13:15:39.136Z,25.40
2017-07-19T13:18:07.532Z,24.90
2017-07-19T13:20:36.686Z,21.60
2017-07-19T13:23:05.397Z,21.60
2017-07-19T13:25:33.802Z,20.10
2017-07-19T13:28:02.182Z,18.60
2017-07-19T13:30:31.369Z,18.50
2017-07-19T13:32:59.755Z,18.40
2017-07-19T13:35:28.169Z,18.70
2017-07-19T13:37:56.595Z,19.00
2017-07-19T13:40:24.999Z,19.10
2017-07-19T13:42:54.161Z,19.40
2017-07-19T13:45:22.812Z,19.40
2017-07-19T13:47:51.203Z,19.50
2017-07-19T13:50:19.609Z,19.50
2017-07-19T13:52:48.232Z,19.50
2017-07-19T13:55:17.395Z,19.50
2017-07-19T13:57:45.791Z,19.50
2017-07-19T14:00:15.246Z,20.10
2017-07-19T14:02:43.817Z,20.10
2017-07-19T14:05:12.229Z,20.20
2017-07-19T14:07:40.849Z,20.20
2017-07-19T14:10:09.323Z,20.30
2017-07-19T14:12:38.482Z,20.10
2017-07-19T14:15:06.939Z,20.10
2017-07-19T14:17:35.336Z,20.40
2017-07-19T14:20:03.393Z,20.50
2017-07-19T14:22:32.616Z,20.50
2017-07-19T14:25:01.012Z,20.70
2017-07-19T14:27:29.402Z,20.80
2017-07-19T14:29:57.843Z,20.80
2017-07-19T14:32:26.252Z,20.70
2017-07-19T14:34:55.417Z,21.30
2017-07-19T14:37:23.856Z,21.20
2017-07-19T14:39:52.246Z,21.40
2017-07-19T14:42:20.650Z,21.50
2017-07-19T14:44:49.303Z,21.80
2017-07-19T14:47:19.343Z,22.10
2017-07-19T14:49:47.739Z,22.40
2017-07-19T14:52:16.209Z,22.50
2017-07-19T14:54:44.605Z,22.60
2017-07-19T14:57:12.994Z,22.90
2017-07-19T14:59:41.631Z,23.10
2017-07-19T15:02:10.051Z,23.50
2017-07-19T15:04:38.488Z,23.80
2017-07-19T15:07:07.004Z,24.00
2017-07-19T15:09:35.393Z,24.10
2017-07-19T15:12:03.797Z,24.20
2017-07-19T15:14:32.353Z,24.40
2017-07-19T15:17:00.742Z,24.30
2017-07-19T15:19:29.143Z,24.30
2017-07-19T15:21:58.563Z,25.20
2017-07-19T15:24:26.968Z,25.10
2017-07-19T15:26:55.366Z,25.40
2017-07-19T15:29:24.032Z,25.60
2017-07-19T15:31:52.426Z,25.70
2017-07-19T15:34:20.815Z,25.80
2017-07-19T15:36:50.375Z,25.80
2017-07-19T15:39:18.766Z,25.90
2017-07-19T15:41:47.154Z,26.10
2017-07-19T15:44:15.800Z,26.20
2017-07-19T15:46:44.865Z,26.40
2017-07-19T15:49:13.267Z,26.40
2017-07-19T15:51:42.901Z,26.20
2017-07-19T15:54:11.126Z,26.20
2017-07-19T15:56:39.556Z,26.10
2017-07-19T15:59:09.421Z,25.90
2017-07-19T16:01:37.894Z,25.90
2017-07-19T16:04:06.290Z,26.00
2017-07-19T16:06:34.826Z,26.10
2017-07-19T16:09:03.053Z,26.10
2017-07-19T16:11:31.467Z,26.00
2017-07-19T16:13:59.976Z,25.70
2017-07-19T16:16:28.375Z,25.40
2017-07-19T16:18:57.570Z,25.20
2017-07-19T16:21:26.008Z,25.20
2017-07-19T16:23:54.395Z,25.10
2017-07-19T16:26:22.778Z,24.90
2017-07-19T16:28:51.123Z,24.70
2017-07-19T16:31:19.532Z,24.60
2017-07-19T16:33:48.019Z,24.70
2017-07-19T16:36:16.791Z,24.60
2017-07-19T16:38:45.189Z,24.50
2017-07-19T16:41:13.583Z,24.40
2017-07-19T16:43:42.305Z,24.50
2017-07-19T16:46:10.722Z,24.40
2017-07-19T16:48:39.114Z,24.30
2017-07-19T16:51:07.728Z,24.20
2017-07-19T16:53:36.890Z,24.10
2017-07-19T16:56:05.285Z,24.00
2017-07-19T16:58:34.079Z,24.10
2017-07-19T17:01:03.259Z,23.80
2017-07-19T17:03:31.670Z,23.80
2017-07-19T17:06:00.242Z,23.80
2017-07-19T17:08:28.625Z,23.80
2017-07-19T17:10:57.016Z,23.70
2017-07-19T17:13:25.454Z,23.70
2017-07-19T17:15:53.840Z,23.60
2017-07-19T17:18:22.239Z,23.60
2017-07-19T17:20:51.716Z,23.60
2017-07-19T17:23:20.102Z,23.50
2017-07-19T17:25:49.586Z,23.50
2017-07-19T17:28:18.070Z,23.40
2017-07-19T17:30:46.497Z,23.40
2017-07-19T17:33:14.901Z,23.40
2017-07-19T17:35:43.313Z,23.40
2017-07-19T17:38:11.729Z,23.40
2017-07-19T17:40:39.933Z,23.40
2017-07-19T17:43:08.331Z,23.30
2017-07-19T17:45:36.762Z,23.30
2017-07-19T17:48:05.214Z,23.30
2017-07-19T17:50:38.222Z,23.30
2017-07-19T17:53:06.625Z,23.20
2017-07-19T17:55:35.933Z,23.30
2017-07-19T17:58:04.345Z,23.20
2017-07-19T18:00:32.742Z,23.20
2017-07-19T18:03:01.923Z,23.00
2017-07-19T18:05:30.353Z,23.00
2017-07-19T18:08:00.624Z,23.00
2017-07-19T18:10:31.217Z,22.80
2017-07-19T18:13:00.277Z,22.80
2017-07-19T18:15:31.509Z,23.00
2017-07-19T18:17:59.898Z,22.90
2017-07-19T18:20:28.298Z,23.00
2017-07-19T18:22:56.708Z,23.10
2017-07-19T18:25:25.109Z,23.20
2017-07-19T18:27:53.547Z,23.20
2017-07-19T18:30:21.996Z,23.20
2017-07-19T18:32:50.406Z,23.10
2017-07-19T18:35:18.841Z,23.10
2017-07-19T18:37:47.875Z,23.10
2017-07-19T18:40:16.526Z,23.10
2017-07-19T18:42:44.930Z,23.00
2017-07-19T18:45:13.344Z,23.00
2017-07-19T18:47:41.737Z,23.00
2017-07-19T18:50:10.903Z,23.10
2017-07-19T18:52:39.422Z,23.00
2017-07-19T18:55:07.806Z,23.10
2017-07-19T18:57:36.976Z,23.00
2017-07-19T19:00:05.394Z,23.00
2017-07-19T19:02:33.785Z,23.00
2017-07-19T19:05:02.373Z,23.10
2017-07-19T19:07:30.802Z,23.20
2017-07-19T19:09:59.207Z,23.10
2017-07-19T19:12:31.065Z,23.10
2017-07-19T19:14:59.467Z,23.00
2017-07-19T19:17:27.870Z,22.90
2017-07-19T19:19:56.306Z,22.90
2017-07-19T19:22:24.719Z,22.80
2017-07-19T19:24:53.130Z,22.80
2017-07-19T19:27:21.527Z,22.80
2017-07-19T19:29:49.967Z,22.60
2017-07-19T19:32:18.350Z,22.50
2017-07-19T19:34:46.763Z,22.50
2017-07-19T19:37:15.947Z,22.40
2017-07-19T19:39:44.369Z,22.40
2017-07-19T19:42:12.858Z,22.40
2017-07-19T19:44:41.248Z,22.30
2017-07-19T19:47:09.646Z,22.10
2017-07-19T19:49:38.066Z,22.10
2017-07-19T19:52:06.477Z,22.20
2017-07-19T19:54:35.119Z,22.00
2017-07-19T19:57:04.290Z,21.90
2017-07-19T19:59:32.707Z,21.90
2017-07-19T20:02:01.331Z,21.90
2017-07-19T20:04:29.531Z,21.70
2017-07-19T20:06:58.341Z,21.60
2017-07-19T20:09:26.778Z,21.60
2017-07-19T20:11:55.169Z,21.50
2017-07-19T20:14:23.583Z,21.60
2017-07-19T20:16:51.958Z,21.60
2017-07-19T20:19:20.681Z,21.60
2017-07-19T20:21:49.070Z,21.50
2017-07-19T20:24:17.481Z,21.40
2017-07-19T20:26:45.873Z,21.40
2017-07-19T20:29:14.289Z,21.40
2017-07-19T20:31:42.534Z,21.40
2017-07-19T20:34:10.731Z,21.40
2017-07-19T20:36:39.161Z,21.40
2017-07-19T20:39:07.584Z,21.40
2017-07-19T20:41:35.983Z,21.40
2017-07-19T20:44:04.422Z,21.40
2017-07-19T20:46:32.849Z,21.40
2017-07-19T20:49:01.242Z,21.40
2017-07-19T20:51:29.662Z,21.40
2017-07-19T20:53:58.051Z,21.40
2017-07-19T20:56:26.726Z,21.30
2017-07-19T20:58:55.140Z,21.30
2017-07-19T21:01:23.549Z,21.30
2017-07-19T21:03:51.938Z,21.40
2017-07-19T21:06:21.102Z,21.40
2017-07-19T21:08:49.497Z,21.40
2017-07-19T21:11:17.886Z,21.40
2017-07-19T21:13:47.336Z,21.40
2017-07-19T21:16:15.741Z,21.40
2017-07-19T21:18:44.176Z,21.40
2017-07-19T21:21:12.589Z,21.40
2017-07-19T21:23:41.007Z,21.40
2017-07-19T21:26:10.588Z,21.50
2017-07-19T21:28:38.992Z,21.50
2017-07-19T21:31:08.144Z,21.60
2017-07-19T21:33:37.185Z,21.60
2017-07-19T21:36:06.337Z,21.70
2017-07-19T21:38:35.787Z,21.70
2017-07-19T21:41:04.169Z,21.80
2017-07-19T21:43:32.596Z,21.80
2017-07-19T21:46:01.005Z,21.90
2017-07-19T21:48:29.395Z,22.00
2017-07-19T21:50:58.822Z,22.10
2017-07-19T21:53:27.208Z,22.10
2017-07-19T21:55:55.627Z,22.20
2017-07-19T21:58:24.031Z,22.30
2017-07-19T22:00:53.185Z,22.40
2017-07-19T22:03:21.529Z,22.30
2017-07-19T22:05:49.917Z,22.40
2017-07-19T22:08:18.322Z,22.40
2017-07-19T22:10:46.719Z,22.50
2017-07-19T22:13:15.118Z,22.50
2017-07-19T22:15:43.909Z,22.50
2017-07-19T22:18:12.309Z,22.60
2017-07-19T22:20:40.721Z,22.60
2017-07-19T22:23:09.634Z,22.70
2017-07-19T22:25:38.019Z,22.70
2017-07-19T22:28:06.500Z,22.80
2017-07-19T22:30:34.889Z,22.80
2017-07-19T22:33:03.278Z,22.80
2017-07-19T22:35:31.682Z,22.80
2017-07-19T22:38:00.057Z,22.80
2017-07-19T22:40:28.619Z,22.80
2017-07-19T22:42:57.043Z,22.80
2017-07-19T22:45:25.432Z,22.80
2017-07-19T22:47:53.831Z,22.70
2017-07-19T22:50:22.225Z,22.70
2017-07-19T22:52:51.398Z,22.60
2017-07-19T22:55:20.431Z,22.60
2017-07-19T22:57:49.591Z,22.40
2017-07-19T23:00:18.111Z,22.40
2017-07-19T23:02:46.600Z,22.40
2017-07-19T23:05:15.180Z,22.40
2017-07-19T23:07:43.578Z,22.30
2017-07-19T23:10:11.982Z,22.30
2017-07-19T23:12:41.293Z,22.30
2017-07-19T23:15:09.696Z,22.30
2017-07-19T23:17:38.224Z,22.30
2017-07-19T23:20:06.617Z,22.30
2017-07-19T23:22:35.015Z,22.30
2017-07-19T23:25:03.419Z,22.40
2017-07-19T23:27:31.830Z,22.40
2017-07-19T23:30:00.435Z,22.50
2017-07-19T23:32:28.813Z,22.50
2017-07-19T23:34:57.198Z,22.60
2017-07-19T23:37:25.590Z,22.60
2017-07-19T23:39:53.626Z,22.60
2017-07-19T23:42:22.036Z,22.60
2017-07-19T23:44:50.427Z,22.60
2017-07-19T23:47:18.875Z,22.60
2017-07-19T23:49:47.298Z,22.50
2017-07-19T23:52:16.362Z,22.60
2017-07-19T23:54:44.883Z,22.50
2017-07-19T23:57:13.277Z,22.50
2017-07-19T23:59:41.656Z,22.60
